Time;durP1;ratioP1;P1;durP2;ratioP2;P2;SDS_P1;SDS_P2;PMS_P1;PMS_P2;Temp;Humidity;BMP_temperature;BMP_pressure;BME280_temperature;BME280_humidity;BME280_pressure;Samples;Min_cycle;Max_cycle;Signal;HPM_P1;HPM_P2
2022/05/24 00:02:04;;;;;;;6.82;3.97;;;;;;;12.74;62.39;100466.53;5095985;28;20361;-59
2022/05/24 00:04:35;;;;;;;6.78;3.88;;;;;;;12.74;62.43;100461.34;5096525;28;20052;-59
2022/05/24 00:07:03;;;;;;;6.88;3.95;;;;;;;12.73;62.32;100457.03;5079659;28;20055;-58
2022/05/24 00:09:31;;;;;;;7.50;4.03;;;;;;;12.70;62.29;100457.09;5075410;28;20049;-55
2022/05/24 00:11:59;;;;;;;7.47;4.10;;;;;;;12.70;62.58;100463.16;5075758;28;20457;-57
2022/05/24 00:17:15;;;;;;;7.80;4.03;;;;;;;12.67;62.47;100458.03;5042055;28;20131;-57
2022/05/24 00:19:41;;;;;;;6.47;4.20;;;;;;;12.64;62.35;100453.75;5075934;28;20048;-58
2022/05/24 00:22:11;;;;;;;6.03;4.05;;;;;;;12.62;62.19;100445.13;5075231;28;20049;-58
2022/05/24 00:24:41;;;;;;;6.63;3.65;;;;;;;12.62;62.27;100452.06;5075778;28;20450;-56
2022/05/24 00:27:10;;;;;;;5.18;3.22;;;;;;;12.62;62.29;100450.31;5075625;28;20136;-57
2022/05/24 00:29:39;;;;;;;7.55;3.97;;;;;;;12.61;62.25;100453.81;5075919;28;20052;-58
2022/05/24 00:32:10;;;;;;;6.65;4.07;;;;;;;12.60;62.20;100452.09;5075728;28;20059;-59
2022/05/24 00:34:39;;;;;;;6.88;3.38;;;;;;;12.60;62.02;100449.50;5075165;28;20049;-58
2022/05/24 00:37:09;;;;;;;5.78;3.83;;;;;;;12.58;62.15;100442.63;5075053;28;20400;-59
2022/05/24 00:39:36;;;;;;;6.22;3.67;;;;;;;12.55;62.26;100442.69;5075500;28;20062;-59
2022/05/24 00:42:11;;;;;;;7.32;3.95;;;;;;;12.53;61.96;100440.13;5062006;28;20049;-59
2022/05/24 00:44:44;;;;;;;6.50;4.53;;;;;;;12.51;62.14;100436.69;5055050;28;20487;-58
2022/05/24 00:47:17;;;;;;;6.95;4.18;;;;;;;12.48;62.29;100430.66;5053986;28;20089;-59
2022/05/24 00:50:01;;;;;;;7.78;4.40;;;;;;;12.45;62.24;100436.78;5055317;28;20076;-59
2022/05/24 00:52:37;;;;;;;6.82;4.15;;;;;;;12.40;62.16;100441.22;5055220;28;20067;-58
2022/05/24 00:55:06;;;;;;;5.55;3.63;;;;;;;12.37;62.17;100438.69;5057722;28;20045;-58
2022/05/24 00:57:35;;;;;;;6.57;3.85;;;;;;;12.34;62.44;100433.56;5063631;28;20071;-59
2022/05/24 01:00:10;;;;;;;6.07;3.60;;;;;;;12.31;62.28;100434.47;5059505;28;20048;-57
2022/05/24 01:02:38;;;;;;;5.88;3.80;;;;;;;12.27;62.30;100421.56;5075172;28;20062;-58
2022/05/24 01:05:12;;;;;;;8.05;4.30;;;;;;;12.26;62.34;100425.06;5074547;28;20040;-57
2022/05/24 01:07:42;;;;;;;8.50;4.13;;;;;;;12.24;62.29;100416.44;5054956;28;20049;-56
2022/05/24 01:10:16;;;;;;;8.35;4.75;;;;;;;12.19;62.18;100424.34;5065520;28;20668;-60
2022/05/24 01:12:51;;;;;;;7.13;4.75;;;;;;;12.17;62.33;100415.72;5074417;28;20076;-60
2022/05/24 01:15:21;;;;;;;7.03;3.58;;;;;;;12.15;62.41;100416.63;5075276;28;20056;-61
2022/05/24 01:17:54;;;;;;;7.88;4.38;;;;;;;12.12;62.65;100411.50;5074292;28;20048;-60
2022/05/24 01:20:32;;;;;;;6.57;4.47;;;;;;;12.09;62.27;100411.56;5074843;28;20079;-61
2022/05/24 01:23:20;;;;;;;7.95;4.78;;;;;;;12.07;62.56;100418.53;5074930;28;20056;-61
2022/05/24 01:25:58;;;;;;;6.00;4.22;;;;;;;12.04;62.54;100403.00;5074203;28;20063;-61
2022/05/24 01:28:39;;;;;;;6.05;4.32;;;;;;;12.04;62.84;100409.06;5073754;28;20064;-60
2022/05/24 01:31:08;;;;;;;6.82;4.32;;;;;;;12.08;62.68;100396.84;5074871;28;20052;-61
2022/05/24 01:36:27;;;;;;;9.00;4.53;;;;;;;12.09;62.71;100401.16;5074314;28;20059;-62
2022/05/24 01:39:07;;;;;;;7.40;4.70;;;;;;;12.08;62.74;100399.47;5074408;28;20045;-62
2022/05/24 01:41:42;;;;;;;7.05;4.07;;;;;;;12.09;62.85;100396.81;5064789;28;20071;-61
2022/05/24 01:44:21;;;;;;;7.40;4.30;;;;;;;12.11;62.79;100394.19;5054496;28;20056;-62
2022/05/24 01:46:49;;;;;;;7.88;5.03;;;;;;;12.09;62.69;100390.78;5054298;28;20131;-61
2022/05/24 01:49:21;;;;;;;7.60;4.68;;;;;;;12.10;62.98;100390.75;5054512;28;20057;-62
2022/05/24 01:51:56;;;;;;;7.88;4.65;;;;;;;12.10;62.55;100382.09;5061102;28;20052;-62
2022/05/24 01:54:26;;;;;;;7.57;5.00;;;;;;;12.11;62.91;100382.06;5073418;28;20477;-62
2022/05/24 01:57:02;;;;;;;7.90;5.00;;;;;;;12.15;63.43;100380.25;5090804;28;20127;-61
2022/05/24 01:59:34;;;;;;;6.70;4.20;;;;;;;12.16;63.42;100375.03;5093270;28;20048;-61
2022/05/24 02:02:04;;;;;;;6.05;3.70;;;;;;;12.16;63.25;100376.78;5094572;28;20047;-60
2022/05/24 02:04:33;;;;;;;7.90;4.80;;;;;;;12.17;63.28;100368.09;5093981;28;20087;-60
2022/05/24 02:07:05;;;;;;;6.65;3.92;;;;;;;12.15;63.11;100368.13;5076937;28;20128;-61
2022/05/24 02:09:33;;;;;;;9.50;4.78;;;;;;;12.14;63.50;100363.81;5072963;28;20066;-61
2022/05/24 02:12:09;;;;;;;6.90;4.25;;;;;;;12.13;62.89;100366.44;5072926;28;20475;-61
2022/05/24 02:14:50;;;;;;;6.60;4.82;;;;;;;12.12;63.26;100364.72;5072965;28;20052;-60
2022/05/24 02:17:21;;;;;;;8.00;3.92;;;;;;;12.12;63.51;100365.59;5073596;28;20048;-60
2022/05/24 02:19:52;;;;;;;5.55;3.83;;;;;;;12.12;63.31;100354.34;5071731;28;20052;-59
2022/05/24 02:22:24;;;;;;;6.38;3.90;;;;;;;12.11;63.48;100363.03;5072266;28;20075;-61
2022/05/24 02:25:09;;;;;;;7.50;4.28;;;;;;;12.15;63.23;100359.47;5073369;28;20084;-61
2022/05/24 02:27:43;;;;;;;7.38;4.05;;;;;;;12.12;63.65;100354.34;5073149;28;20052;-61
2022/05/24 02:30:13;;;;;;;8.20;4.30;;;;;;;12.11;63.77;100352.63;5073542;28;20091;-60
2022/05/24 02:32:41;;;;;;;7.07;4.00;;;;;;;12.13;63.84;100356.06;5073410;28;20052;-61
2022/05/24 02:35:09;;;;;;;7.95;4.55;;;;;;;12.13;63.73;100356.06;5073356;28;20067;-61
2022/05/24 02:37:38;;;;;;;7.90;4.18;;;;;;;12.09;63.47;100352.66;5073426;28;20076;-60
2022/05/24 02:42:54;;;;;;;6.53;3.83;;;;;;;11.98;63.39;100342.50;5053431;28;20059;-61
2022/05/24 02:45:29;;;;;;;9.07;4.35;;;;;;;11.95;63.45;100339.91;5053348;28;20084;-60
2022/05/24 02:47:57;;;;;;;7.32;4.13;;;;;;;11.90;63.36;100339.16;5053313;28;20122;-61
2022/05/24 02:50:26;;;;;;;6.47;3.72;;;;;;;11.87;63.43;100339.22;5053620;28;20049;-60
2022/05/24 02:52:57;;;;;;;9.65;4.55;;;;;;;11.84;63.86;100333.25;5053333;28;20053;-60
2022/05/24 02:55:25;;;;;;;7.03;4.32;;;;;;;11.81;63.43;100334.16;5061389;28;20132;-61
2022/05/24 02:57:55;;;;;;;6.82;4.10;;;;;;;11.78;63.48;100329.03;5093753;28;20048;-61
2022/05/24 03:00:36;;;;;;;11.75;4.75;;;;;;;11.77;63.28;100326.44;5093768;28;20427;-62
2022/05/24 03:03:04;;;;;;;6.00;3.63;;;;;;;11.73;63.43;100329.97;5093259;28;20445;-61
2022/05/24 03:05:32;;;;;;;8.02;4.28;;;;;;;11.72;63.64;100333.44;5089445;28;20056;-62
2022/05/24 03:10:45;;;;;;;7.45;4.50;;;;;;;11.70;64.01;100320.50;5072402;28;20055;-62
2022/05/24 03:16:13;;;;;;;6.85;4.50;;;;;;;11.73;63.75;100325.63;5011350;28;20061;-61
2022/05/24 03:18:42;;;;;;;5.50;4.05;;;;;;;11.78;63.97;100321.22;5011153;28;20141;-61
2022/05/24 03:21:10;;;;;;;10.40;5.20;;;;;;;11.84;63.82;100317.66;5046084;28;20055;-61
2022/05/24 03:23:47;;;;;;;7.20;4.65;;;;;;;11.88;63.86;100330.53;5053025;28;20053;-61
2022/05/24 03:26:14;;;;;;;6.88;4.47;;;;;;;11.96;63.82;100332.97;5052893;28;20482;-62
2022/05/24 03:28:46;;;;;;;7.57;4.53;;;;;;;12.04;64.08;100319.88;5066422;28;20053;-60
2022/05/24 03:31:24;;;;;;;10.40;4.38;;;;;;;12.13;64.00;100323.13;5072807;28;20540;-61
2022/05/24 03:33:55;;;;;;;5.53;4.10;;;;;;;12.23;63.90;100315.97;5072514;28;20457;-59
2022/05/24 03:36:25;;;;;;;8.40;4.72;;;;;;;12.37;64.03;100319.13;5073004;28;20056;-62
2022/05/24 03:38:54;;;;;;;7.68;3.85;;;;;;;12.49;63.62;100316.28;5072909;28;20106;-61
2022/05/24 03:41:24;;;;;;;7.13;4.93;;;;;;;12.66;63.37;100320.22;5064781;28;20077;-61
2022/05/24 03:43:52;;;;;;;6.35;4.65;;;;;;;12.81;63.09;100325.06;5052653;28;20456;-60
2022/05/24 03:46:25;;;;;;;6.28;4.03;;;;;;;12.94;62.84;100316.06;5052810;28;20095;-61
2022/05/24 03:48:54;;;;;;;5.25;4.07;;;;;;;13.06;62.54;100326.19;5052520;28;20516;-61
2022/05/24 03:51:22;;;;;;;8.43;4.63;;;;;;;13.19;62.04;100317.22;5052754;28;20110;-61
2022/05/24 03:53:49;;;;;;;7.85;4.10;;;;;;;13.32;61.86;100316.88;5052686;28;20064;-60
2022/05/24 03:56:17;;;;;;;8.52;4.18;;;;;;;13.45;61.83;100318.28;5075126;28;20056;-62
2022/05/24 03:58:45;;;;;;;9.20;4.40;;;;;;;13.56;61.50;100308.44;5092656;28;20059;-61
2022/05/24 04:01:12;;;;;;;6.60;4.05;;;;;;;13.72;60.92;100309.72;5092949;28;20109;-61
2022/05/24 04:03:47;;;;;;;5.95;3.88;;;;;;;13.89;60.37;100317.91;5092462;28;20056;-61
2022/05/24 04:06:15;;;;;;;6.57;4.43;;;;;;;14.00;60.15;100311.53;5081671;28;20072;-61
2022/05/24 04:08:45;;;;;;;7.28;3.88;;;;;;;14.17;59.95;100319.75;5072198;28;20496;-61
2022/05/24 04:11:21;;;;;;;6.38;4.10;;;;;;;14.34;59.49;100319.22;5052675;28;20110;-61
2022/05/24 04:13:51;;;;;;;5.50;3.90;;;;;;;14.51;59.33;100320.44;5063049;28;20057;-60
2022/05/24 04:16:21;;;;;;;8.18;4.40;;;;;;;14.70;58.81;100314.69;5072782;28;20074;-61
2022/05/24 04:18:57;;;;;;;5.13;3.60;;;;;;;14.86;58.19;100315.88;5072357;28;20481;-61
2022/05/24 04:21:25;;;;;;;6.50;4.53;;;;;;;15.00;57.78;100308.44;5072806;28;20052;-61
2022/05/24 04:23:54;;;;;;;6.43;4.38;;;;;;;15.18;57.58;100306.16;5072494;28;20058;-61
2022/05/24 04:26:23;;;;;;;7.03;4.25;;;;;;;15.34;57.14;100307.31;5072258;28;20354;-61
2022/05/24 04:28:50;;;;;;;6.43;4.35;;;;;;;15.48;56.56;100311.16;5071533;28;20135;-61
2022/05/24 04:31:19;;;;;;;8.50;4.57;;;;;;;15.61;56.15;100305.56;5071955;28;20056;-60
2022/05/24 04:33:50;;;;;;;7.25;4.72;;;;;;;15.72;56.11;100304.25;5072484;28;20071;-60
2022/05/24 04:36:31;;;;;;;7.50;4.80;;;;;;;15.91;55.93;100303.56;5072475;28;20052;-61
2022/05/24 04:39:00;;;;;;;7.32;4.45;;;;;;;16.05;55.39;100309.13;5072188;28;20497;-61
2022/05/24 04:44:14;;;;;;;7.55;4.88;;;;;;;16.25;54.95;100313.63;5052568;28;20067;-59
2022/05/24 04:49:27;;;;;;;;;;;;;;;16.28;54.40;100308.28;5056259;28;20056;-60
2022/05/24 04:51:56;;;;;;;6.05;3.70;;;;;;;16.39;54.69;100311.34;5055396;28;20365;-61
2022/05/24 04:54:25;;;;;;;7.78;4.32;;;;;;;16.44;54.31;100303.31;5055640;28;20049;-61
2022/05/24 04:56:54;;;;;;;6.10;4.05;;;;;;;16.54;54.35;100299.41;5087742;28;20052;-61
2022/05/24 04:59:25;;;;;;;6.45;3.97;;;;;;;16.56;54.40;100298.44;5095976;28;20064;-62
2022/05/24 05:01:53;;;;;;;7.57;4.63;;;;;;;16.61;54.28;100300.88;5090806;28;20414;-61
2022/05/24 05:04:23;;;;;;;7.68;4.57;;;;;;;16.67;54.26;100301.53;5075588;28;20048;-60
2022/05/24 05:06:59;;;;;;;6.53;4.72;;;;;;;16.73;53.68;100300.44;5060458;28;20057;-61
2022/05/24 05:09:34;;;;;;;11.35;4.50;;;;;;;16.71;53.73;100299.63;5060787;28;20054;-60
2022/05/24 05:12:06;;;;;;;8.13;4.80;;;;;;;16.78;53.90;100303.72;5076034;28;20067;-60
2022/05/24 05:14:43;;;;;;;8.93;4.35;;;;;;;16.91;53.21;100304.91;5075891;28;20069;-61
2022/05/24 05:17:16;;;;;;;5.60;4.22;;;;;;;17.06;53.15;100305.19;5075616;28;20056;-61
2022/05/24 05:19:43;;;;;;;6.95;3.80;;;;;;;17.16;53.03;100303.88;5075749;28;20048;-60
2022/05/24 05:22:14;;;;;;;7.20;4.68;;;;;;;17.31;52.69;100301.47;5075732;28;20068;-59
2022/05/24 05:24:43;;;;;;;8.65;4.63;;;;;;;17.40;52.63;100289.75;5075695;28;20114;-60
2022/05/24 05:27:13;;;;;;;8.55;4.63;;;;;;;17.42;52.51;100280.06;5074993;28;20067;-61
2022/05/24 05:32:35;;;;;;;6.97;4.13;;;;;;;17.44;52.43;100280.84;5075373;28;20059;-61
2022/05/24 05:35:11;;;;;;;8.02;4.45;;;;;;;17.47;52.41;100278.06;5075695;28;20044;-61
2022/05/24 05:40:21;;;;;;;12.93;6.32;;;;;;;17.72;52.52;100287.53;5075243;28;20052;-60
2022/05/24 05:42:51;;;;;;;7.47;4.70;;;;;;;17.81;52.17;100271.38;5055379;28;20060;-61
2022/05/24 05:45:22;;;;;;;9.00;4.75;;;;;;;17.96;52.12;100265.44;5056929;28;20449;-60
2022/05/24 05:47:53;;;;;;;8.73;4.93;;;;;;;18.07;51.85;100263.16;5075151;28;20075;-60
2022/05/24 05:50:23;;;;;;;7.65;4.38;;;;;;;18.13;51.60;100270.75;5075373;28;20056;-61
2022/05/24 05:52:53;;;;;;;6.28;4.65;;;;;;;18.20;51.57;100253.78;5075123;28;20143;-62
2022/05/24 05:55:38;;;;;;;7.43;4.22;;;;;;;18.33;51.08;100264.56;5078071;28;20076;-60
2022/05/24 05:58:06;;;;;;;11.52;5.68;;;;;;;18.47;51.36;100263.91;5095310;28;20044;-61
2022/05/24 06:00:34;;;;;;;7.43;5.20;;;;;;;18.66;51.01;100266.50;5095310;28;20084;-61
2022/05/24 06:03:04;;;;;;;7.72;5.05;;;;;;;18.81;50.86;100266.63;5095212;28;20063;-62
2022/05/24 06:08:14;;;;;;;7.93;4.80;;;;;;;19.09;50.29;100275.75;5094898;28;20055;-62
2022/05/24 06:10:44;;;;;;;8.20;5.28;;;;;;;19.23;50.17;100275.88;5094801;28;20059;-62
2022/05/24 06:13:12;;;;;;;8.48;5.20;;;;;;;19.39;49.99;100274.19;5094949;28;20052;-62
2022/05/24 06:15:41;;;;;;;6.70;4.18;;;;;;;19.57;49.74;100274.19;5095054;28;20059;-62
2022/05/24 06:18:11;;;;;;;9.10;5.88;;;;;;;19.75;49.27;100273.19;5094826;28;20052;-61
2022/05/24 06:20:42;;;;;;;6.47;4.78;;;;;;;19.90;49.18;100275.03;5094469;28;20531;-61
2022/05/24 06:23:11;;;;;;;10.95;5.10;;;;;;;20.03;48.99;100265.53;5094606;28;20056;-60
2022/05/24 06:25:42;;;;;;;7.68;5.22;;;;;;;20.15;48.80;100270.13;5094533;28;20465;-61
2022/05/24 06:28:19;;;;;;;8.27;4.95;;;;;;;20.25;48.61;100264.34;5093972;28;20048;-62
2022/05/24 06:30:46;;;;;;;9.73;5.20;;;;;;;20.40;48.33;100264.38;5094778;28;20117;-61
2022/05/24 06:33:14;;;;;;;6.95;4.68;;;;;;;20.62;47.96;100265.78;5094565;28;20055;-61
2022/05/24 06:35:42;;;;;;;6.93;5.00;;;;;;;20.76;47.38;100260.56;5094285;28;20464;-61
2022/05/24 06:38:10;;;;;;;13.98;5.28;;;;;;;20.94;47.24;100258.69;5080943;28;20046;-62
2022/05/24 06:40:37;;;;;;;7.15;4.50;;;;;;;21.04;46.80;100262.47;5066771;28;20044;-58
2022/05/24 06:43:06;;;;;;;8.80;5.32;;;;;;;21.15;46.41;100256.56;5055105;28;20129;-58
2022/05/24 06:45:36;;;;;;;8.02;5.00;;;;;;;21.27;45.66;100246.16;5060022;28;20052;-59
2022/05/24 06:48:11;;;;;;;9.82;4.88;;;;;;;21.34;44.70;100262.47;5059007;28;20048;-58
2022/05/24 06:50:42;;;;;;;6.55;3.97;;;;;;;21.41;44.87;100258.53;5057245;28;20335;-58
2022/05/24 06:53:11;;;;;;;11.50;4.70;;;;;;;21.52;45.10;100247.31;5064671;28;20394;-56
2022/05/24 06:55:39;;;;;;;9.13;4.50;;;;;;;21.59;45.07;100240.72;5072123;28;20431;-57
2022/05/24 06:58:09;;;;;;;6.90;5.28;;;;;;;21.73;44.62;100243.34;5076658;28;20071;-58
2022/05/24 07:03:38;;;;;;;7.88;4.20;;;;;;;21.96;44.04;100234.88;5061229;28;20056;-59
2022/05/24 07:06:12;;;;;;;10.02;4.53;;;;;;;22.04;43.86;100226.47;5070040;28;20127;-59
2022/05/24 07:08:42;;;;;;;8.27;4.05;;;;;;;21.98;43.84;100227.69;5065927;28;20110;-59
2022/05/24 07:11:21;;;;;;;5.88;4.07;;;;;;;22.05;43.79;100222.91;5053893;28;20057;-60
2022/05/24 07:13:50;;;;;;;7.85;3.80;;;;;;;21.94;43.36;100225.34;5067386;28;20080;-60
2022/05/24 07:16:34;;;;;;;6.57;3.70;;;;;;;21.96;41.50;100218.19;5056783;28;20049;-60
2022/05/24 07:19:03;;;;;;;6.85;3.45;;;;;;;21.97;42.63;100219.88;5064416;28;20438;-60
2022/05/24 07:21:30;;;;;;;5.88;3.15;;;;;;;22.07;42.35;100212.25;5064047;28;20083;-60
2022/05/24 07:23:57;;;;;;;10.43;3.20;;;;;;;22.15;42.26;100223.16;5062904;28;20051;-59
2022/05/24 07:26:27;;;;;;;5.78;3.85;;;;;;;22.26;41.95;100220.66;5058985;28;20468;-58
2022/05/24 07:28:55;;;;;;;5.43;3.10;;;;;;;22.32;41.84;100199.13;5065235;28;20053;-57
2022/05/24 07:31:25;;;;;;;6.78;3.10;;;;;;;22.28;41.46;100208.22;5061575;28;20135;-61
2022/05/24 07:33:59;;;;;;;9.23;3.35;;;;;;;22.13;41.61;100201.28;5055452;28;20053;-62
2022/05/24 07:36:27;;;;;;;4.87;3.07;;;;;;;22.00;42.15;100204.69;5068742;28;20057;-60
2022/05/24 07:38:55;;;;;;;13.70;3.05;;;;;;;21.95;42.05;100211.22;5058867;28;20057;-62
2022/05/24 07:46:59;;;;;;;6.88;2.75;;;;;;;21.71;40.47;100203.03;5058622;28;20063;-61
2022/05/24 07:49:29;;;;;;;8.45;2.28;;;;;;;21.65;41.25;100203.41;5069464;28;20462;-62
2022/05/24 07:51:57;;;;;;;8.10;2.72;;;;;;;21.60;41.16;100201.06;5057097;28;20084;-62
2022/05/24 07:54:24;;;;;;;5.28;2.50;;;;;;;21.54;41.23;100192.69;5070022;28;20110;-61
2022/05/24 07:56:55;;;;;;;4.85;2.38;;;;;;;21.42;40.96;100192.53;5082236;28;20049;-62
2022/05/24 07:59:23;;;;;;;9.02;2.30;;;;;;;21.39;41.06;100182.16;5061323;28;20462;-60
2022/05/24 08:01:52;;;;;;;4.38;2.47;;;;;;;21.38;40.94;100188.38;5060311;28;20048;-59
2022/05/24 08:04:24;;;;;;;3.75;2.17;;;;;;;21.44;40.74;100189.78;5059915;28;20045;-61
2022/05/24 08:06:55;;;;;;;6.90;2.78;;;;;;;21.46;40.79;100181.78;5073576;28;20048;-61
2022/05/24 08:09:25;;;;;;;3.05;2.00;;;;;;;21.50;40.50;100178.00;5071196;28;20049;-59
2022/05/24 08:14:35;;;;;;;12.23;2.50;;;;;;;21.74;39.71;100176.47;5056796;28;20572;-61
2022/05/24 08:17:06;;;;;;;6.15;2.00;;;;;;;21.91;39.43;100168.34;5064722;28;20757;-61
2022/05/24 08:19:43;;;;;;;4.75;2.00;;;;;;;22.12;39.22;100170.56;5058475;28;20052;-61
2022/05/24 08:22:12;;;;;;;7.80;2.55;;;;;;;22.31;38.84;100181.59;5077319;28;20429;-60
2022/05/24 08:24:42;;;;;;;7.40;2.30;;;;;;;22.45;38.47;100184.22;5063858;28;20048;-61
2022/05/24 08:29:53;;;;;;;4.38;2.20;;;;;;;22.67;37.75;100178.34;5063848;28;20057;-59
2022/05/24 08:32:23;;;;;;;7.68;2.83;;;;;;;22.78;37.97;100190.81;5060693;28;20049;-58
2022/05/24 08:34:59;;;;;;;10.82;2.10;;;;;;;22.90;37.44;100184.75;5069444;28;20084;-54
2022/05/24 08:37:27;;;;;;;10.00;2.40;;;;;;;22.98;37.33;100175.34;5067068;28;20048;-62
2022/05/24 08:39:57;;;;;;;7.47;3.08;;;;;;;23.09;37.68;100169.31;5061146;28;20052;-60
2022/05/24 08:42:31;;;;;;;3.00;1.77;;;;;;;23.28;37.39;100172.38;5061532;28;20061;-60
2022/05/24 08:51:00;;;;;;;8.38;2.60;;;;;;;23.55;36.51;100166.16;5067634;28;20066;-59
2022/05/24 08:53:39;;;;;;;4.65;2.42;;;;;;;23.56;36.64;100168.69;5064574;28;20068;-63
2022/05/24 08:56:17;;;;;;;3.65;2.00;;;;;;;23.55;36.37;100166.16;5082745;28;20058;-61
2022/05/24 08:58:48;;;;;;;2.65;1.80;;;;;;;23.56;36.29;100162.53;5076677;28;20070;-61
2022/05/24 09:01:26;;;;;;;5.35;1.88;;;;;;;23.60;36.33;100164.88;5064680;28;20048;-62
2022/05/24 09:03:53;;;;;;;3.35;1.58;;;;;;;23.70;36.42;100154.47;5054858;28;20167;-59
2022/05/24 09:06:38;;;;;;;3.53;1.58;;;;;;;23.79;34.48;100143.22;5071397;28;20438;-60
2022/05/24 09:09:24;;;;;;;8.98;2.25;;;;;;;23.84;34.35;100151.66;5055624;28;20353;-58
2022/05/24 09:12:03;;;;;;;5.28;1.92;;;;;;;23.97;34.71;100153.44;5069795;28;20060;-59
2022/05/24 09:14:42;;;;;;;9.85;1.88;;;;;;;24.05;34.20;100153.72;5058385;28;20048;-62
2022/05/24 09:17:23;;;;;;;22.33;2.47;;;;;;;23.98;32.57;100157.78;5075209;28;20055;-60
2022/05/24 09:19:52;;;;;;;15.20;1.75;;;;;;;23.87;33.78;100156.72;5070330;28;20041;-60
2022/05/24 09:22:23;;;;;;;6.10;1.63;;;;;;;23.78;32.94;100157.41;5058402;28;20056;-59
2022/05/24 09:24:56;;;;;;;10.63;2.17;;;;;;;23.68;33.58;100153.72;5079194;28;20059;-60
2022/05/24 09:27:32;;;;;;;15.02;2.25;;;;;;;23.64;33.86;100149.59;5063633;28;20060;-59
2022/05/24 09:30:06;;;;;;;9.05;1.90;;;;;;;23.65;33.87;100153.94;5073186;28;20150;-62
2022/05/24 09:32:38;;;;;;;8.15;1.80;;;;;;;23.69;33.91;100152.78;5063068;28;20429;-61
2022/05/24 09:35:29;;;;;;;9.05;2.35;;;;;;;23.72;32.63;100152.53;5068420;28;20059;-61
2022/05/24 09:38:17;;;;;;;6.53;1.98;;;;;;;23.72;33.39;100155.19;5070998;28;20111;-58
2022/05/24 09:40:49;;;;;;;10.35;2.75;;;;;;;23.75;34.39;100154.97;5057315;28;20044;-59
2022/05/24 09:43:35;;;;;;;7.20;2.00;;;;;;;23.75;33.59;100148.84;5064460;28;20052;-59
2022/05/24 09:46:13;;;;;;;9.93;2.10;;;;;;;23.70;34.23;100159.75;5056948;28;20417;-59
2022/05/24 09:48:57;;;;;;;3.65;1.75;;;;;;;23.61;33.91;100165.69;5065127;28;20163;-61
2022/05/24 09:51:28;;;;;;;5.53;1.83;;;;;;;23.50;34.21;100168.25;5064913;28;20053;-58
2022/05/24 09:53:58;;;;;;;6.10;1.70;;;;;;;23.33;33.48;100160.63;5058639;28;20063;-61
2022/05/24 09:56:29;;;;;;;7.63;1.77;;;;;;;23.19;34.38;100157.16;5083070;28;20064;-61
2022/05/24 09:58:59;;;;;;;7.05;2.10;;;;;;;23.04;34.66;100160.88;5064864;28;20045;-63
2022/05/24 10:01:41;;;;;;;5.15;1.98;;;;;;;22.93;34.84;100152.84;5064924;28;20048;-60
2022/05/24 10:04:21;;;;;;;3.97;1.80;;;;;;;22.81;34.58;100153.66;5056050;28;20080;-60
2022/05/24 10:06:59;;;;;;;5.28;1.83;;;;;;;22.67;35.20;100154.56;5061774;28;20095;-61
2022/05/24 10:09:51;;;;;;;5.57;1.60;;;;;;;22.52;35.31;100156.44;5062426;28;20056;-58
2022/05/24 10:12:41;;;;;;;8.80;2.30;;;;;;;22.45;35.58;100156.97;5070104;28;20109;-60
2022/05/24 10:15:21;;;;;;;9.25;2.53;;;;;;;22.33;35.73;100159.44;5062378;28;20066;-59
2022/05/24 10:18:17;;;;;;;9.77;1.80;;;;;;;22.22;35.81;100148.75;5058651;28;20063;-59
2022/05/24 10:20:58;;;;;;;8.65;3.45;;;;;;;22.14;36.37;100158.97;5040254;28;20080;-62
2022/05/24 10:23:42;;;;;;;5.97;2.00;;;;;;;22.06;36.41;100147.22;5062469;28;20055;-62
2022/05/24 10:26:41;;;;;;;5.15;2.08;;;;;;;22.00;36.77;100157.19;5069006;28;20054;-62
2022/05/24 10:29:23;;;;;;;5.65;1.73;;;;;;;21.99;36.57;100158.13;5061574;28;20140;-62
2022/05/24 10:31:58;;;;;;;5.95;2.10;;;;;;;21.99;37.07;100154.66;5068237;28;20485;-60
2022/05/24 10:40:28;;;;;;;3.80;1.80;;;;;;;21.94;37.46;100141.75;5069594;28;19931;-59
2022/05/24 10:43:12;;;;;;;3.75;2.00;;;;;;;21.98;37.61;100131.84;5059372;28;20052;-61
2022/05/24 10:45:58;;;;;;;7.57;2.05;;;;;;;22.04;37.66;100136.75;5057813;28;20123;-60
2022/05/24 10:48:35;;;;;;;5.35;2.22;;;;;;;22.08;37.37;100140.03;5053338;28;20454;-60
2022/05/24 10:51:19;;;;;;;6.63;2.70;;;;;;;22.09;37.77;100128.53;5060663;28;20060;-61
2022/05/24 10:54:14;;;;;;;6.53;2.10;;;;;;;22.10;37.39;100140.78;5058152;28;20090;-61
2022/05/24 10:56:47;;;;;;;7.57;2.28;;;;;;;22.09;37.78;100128.53;5076832;28;20048;-59
2022/05/24 10:59:25;;;;;;;12.50;2.55;;;;;;;22.15;38.06;100143.97;5063428;28;20068;-60
2022/05/24 11:01:59;;;;;;;16.23;2.78;;;;;;;22.19;37.86;100138.38;5067455;28;20358;-60
2022/05/24 11:04:39;;;;;;;7.85;2.10;;;;;;;22.18;37.97;100138.47;5056138;28;20052;-59
2022/05/24 11:07:14;;;;;;;5.97;1.90;;;;;;;22.21;37.54;100125.09;5064336;28;20053;-57
2022/05/24 11:10:05;;;;;;;9.35;2.45;;;;;;;22.23;36.85;100133.75;5065977;28;20049;-58
2022/05/24 11:12:41;;;;;;;8.57;2.05;;;;;;;22.23;37.02;100137.22;5060726;28;20089;-58
2022/05/24 11:15:28;;;;;;;5.07;1.98;;;;;;;22.25;36.22;100124.78;5052373;28;20666;-58
2022/05/24 11:17:56;;;;;;;4.50;2.00;;;;;;;22.27;36.96;100138.72;5067807;28;20045;-61
2022/05/24 11:20:34;;;;;;;13.07;2.80;;;;;;;22.28;36.23;100126.38;5053568;28;20041;-58
2022/05/24 11:23:11;;;;;;;8.77;2.53;;;;;;;22.28;36.27;100144.84;5059190;28;20059;-60
2022/05/24 11:25:43;;;;;;;11.70;2.33;;;;;;;22.27;36.80;100135.22;5055943;28;20782;-60
2022/05/24 11:28:23;;;;;;;12.13;2.35;;;;;;;22.24;36.88;100143.34;5071104;28;20048;-59
2022/05/24 11:30:53;;;;;;;6.50;1.90;;;;;;;22.19;37.18;100140.19;5058550;28;20048;-60
2022/05/24 11:33:40;;;;;;;4.50;1.92;;;;;;;22.14;36.87;100137.00;5065835;28;20048;-60
2022/05/24 11:36:41;;;;;;;5.53;1.80;;;;;;;22.09;37.23;100144.38;5056085;28;20080;-61
2022/05/24 11:39:15;;;;;;;5.07;2.20;;;;;;;22.03;37.75;100137.69;5063524;28;20045;-60
2022/05/24 11:41:43;;;;;;;9.07;2.17;;;;;;;22.04;37.85;100129.69;5055101;28;20048;-61
2022/05/24 11:44:32;;;;;;;47.30;4.13;;;;;;;22.04;37.06;100137.59;5071688;28;20049;-60
2022/05/24 11:50:42;;;;;;;11.60;1.90;;;;;;;21.92;36.48;100156.84;5051881;28;20060;-59
2022/05/24 11:53:21;;;;;;;5.47;1.80;;;;;;;21.88;37.09;100157.97;5061047;28;20052;-60
2022/05/24 11:56:21;;;;;;;7.68;1.70;;;;;;;21.84;37.21;100145.91;5076699;28;20052;-60
2022/05/24 11:58:58;;;;;;;8.27;2.50;;;;;;;21.79;37.44;100148.00;5067920;28;20057;-57
2022/05/24 12:01:53;;;;;;;8.55;2.55;;;;;;;21.76;37.07;100153.47;5065125;28;20041;-60
2022/05/24 12:08:02;;;;;;;7.22;1.77;;;;;;;21.66;37.59;100152.34;5068590;28;20484;-60
2022/05/24 12:10:51;;;;;;;8.27;2.03;;;;;;;21.60;37.42;100152.75;5059542;28;20097;-60
2022/05/24 12:13:51;;;;;;;14.85;3.20;;;;;;;21.51;37.72;100158.59;5065827;28;20049;-58
2022/05/24 12:17:09;;;;;;;10.02;2.53;;;;;;;21.39;38.22;100157.59;5072696;28;20397;-60
2022/05/24 12:19:45;;;;;;;17.13;2.53;;;;;;;21.32;38.68;100170.28;4986578;28;20130;-59
2022/05/24 12:22:22;;;;;;;8.70;2.13;;;;;;;21.26;39.30;100159.25;4994326;28;20050;-60
2022/05/24 12:25:04;;;;;;;7.15;2.05;;;;;;;21.19;39.92;100173.72;4993706;28;20082;-59
2022/05/24 12:27:55;;;;;;;6.32;2.08;;;;;;;21.06;41.01;100171.00;4993169;28;20125;-61
2022/05/24 12:30:50;;;;;;;4.60;2.30;;;;;;;21.00;43.00;100182.75;4993508;28;20054;-61
2022/05/24 12:33:47;;;;;;;9.57;2.17;;;;;;;20.93;49.05;100165.63;4988335;28;20096;-61
2022/05/24 12:36:23;;;;;;;7.60;1.90;;;;;;;20.84;46.98;100179.34;4939997;28;20050;-59
2022/05/24 12:39:01;;;;;;;5.18;2.08;;;;;;;20.76;47.05;100185.03;4984991;28;20480;-59
2022/05/24 12:41:36;;;;;;;9.45;2.45;;;;;;;20.70;47.51;100188.03;4992182;28;20058;-58
2022/05/24 12:44:14;;;;;;;4.78;2.47;;;;;;;20.63;47.87;100184.06;4986116;28;20446;-60
2022/05/24 12:46:47;;;;;;;5.78;2.28;;;;;;;20.55;48.01;100194.22;4982064;28;20077;-62
2022/05/24 12:49:19;;;;;;;4.28;2.63;;;;;;;20.31;53.56;100196.44;4993807;28;20197;-62
2022/05/24 12:51:54;;;;;;;6.03;2.28;;;;;;;20.22;54.26;100180.31;4992902;28;20054;-60
2022/05/24 12:54:31;;;;;;;6.87;2.50;;;;;;;20.20;55.66;100187.44;5032250;28;20053;-60
2022/05/24 12:57:04;;;;;;;6.10;2.50;;;;;;;20.11;54.82;100184.38;5063951;28;20045;-59